KEMP

Details ICAO KEMP (KEX)
Name EMPORIA MUNI
Region United States
Timezone America/Chicago (UTC-5.0)
Plans Departing 7
Arriving 4
Stats Elevation 1,208 ft / 368 m (AMSL)
Location 38.330315° -96.189764°
Runways 2
Magnetic Variation 2.775° E
Sunrise 2018-05-24 11:08:22 UTC / 2018-05-24 06:08:22 Local
Sunset 2018-05-25 01:37:45 UTC / 2018-05-24 20:37:45 Local
Advertisement - Login to hide

Runways

ID Width Length Bearing (true) Bearing (mag) Surface Threshold Offset Overrun Length
01 98 ft / 30 m 5,005 ft / 1,525 m 12.03° 9.25° Asphalt 0 ft / 0 m 0 ft / 0 m
06 299 ft / 91 m 3,879 ft / 1,182 m 63.51° 60.73° Grass 0 ft / 0 m 0 ft / 0 m
19 98 ft / 30 m 5,005 ft / 1,525 m 192.03° 189.25° Asphalt 0 ft / 0 m 0 ft / 0 m
24 299 ft / 91 m 3,879 ft / 1,182 m 243.51° 240.73° Grass 0 ft / 0 m 0 ft / 0 m

Map

Weather


0- 5 10 15 20 25 30 35+ Temperature / ° C

Clouds and Precipitation
Forecast for 2018-05-25 00:00 UTC. Updated 3 hours ago

Ground ~20,000 ft ~40,000 ft Winds

METAR

KEMP 250053Z AUTO 12007KT 10SM FEW050 SCT100 20/18 A2999 RMK AO2 LTG DSNT S RAE40 SLP148 P0002 T02000183

TAF

Not found

Frequencies

Recorded 124.67 MHz ASOS
Approach 127.72 MHz KANSAS CITY CNTR
Unicom 122.80 MHz CTAF/UNICOM
Warning: Do not use this data for real-world aviation or navigation. No guarantee of current accuracy is given.